sensor_id;sensor_type;location;lat;lon;timestamp;temperature;humidity
9975;DHT22;5028;50.974;4.968;2022-09-13T00:01:09;19.60;99.90
9975;DHT22;5028;50.974;4.968;2022-09-13T00:03:38;19.50;99.90
9975;DHT22;5028;50.974;4.968;2022-09-13T00:06:16;19.40;99.90
9975;DHT22;5028;50.974;4.968;2022-09-13T00:08:46;19.40;99.90
9975;DHT22;5028;50.974;4.968;2022-09-13T00:11:24;19.30;99.90
9975;DHT22;5028;50.974;4.968;2022-09-13T00:13:55;19.30;99.90
9975;DHT22;5028;50.974;4.968;2022-09-13T00:16:31;19.30;99.90
9975;DHT22;5028;50.974;4.968;2022-09-13T00:19:13;19.20;99.90
9975;DHT22;5028;50.974;4.968;2022-09-13T00:21:48;19.20;99.90
9975;DHT22;5028;50.974;4.968;2022-09-13T00:24:17;19.20;99.90
9975;DHT22;5028;50.974;4.968;2022-09-13T00:26:53;19.20;99.90
9975;DHT22;5028;50.974;4.968;2022-09-13T00:29:23;19.10;99.90
9975;DHT22;5028;50.974;4.968;2022-09-13T00:31:57;19.20;99.90
9975;DHT22;5028;50.974;4.968;2022-09-13T00:34:26;19.10;99.90
9975;DHT22;5028;50.974;4.968;2022-09-13T00:37:01;19.00;99.90
9975;DHT22;5028;50.974;4.968;2022-09-13T00:39:32;19.00;99.90
9975;DHT22;5028;50.974;4.968;2022-09-13T00:42:01;19.00;99.90
9975;DHT22;5028;50.974;4.968;2022-09-13T00:44:52;19.00;99.90
9975;DHT22;5028;50.974;4.968;2022-09-13T00:47:27;19.00;99.90
9975;DHT22;5028;50.974;4.968;2022-09-13T00:50:10;19.00;99.90
9975;DHT22;5028;50.974;4.968;2022-09-13T00:52:43;18.90;99.90
9975;DHT22;5028;50.974;4.968;2022-09-13T00:55:22;18.90;99.90
9975;DHT22;5028;50.974;4.968;2022-09-13T00:57:59;19.00;99.90
9975;DHT22;5028;50.974;4.968;2022-09-13T01:00:37;18.90;99.90
9975;DHT22;5028;50.974;4.968;2022-09-13T01:03:11;19.00;99.90
9975;DHT22;5028;50.974;4.968;2022-09-13T01:05:51;19.00;99.90
9975;DHT22;5028;50.974;4.968;2022-09-13T01:08:20;19.00;99.90
9975;DHT22;5028;50.974;4.968;2022-09-13T01:10:59;19.00;99.90
9975;DHT22;5028;50.974;4.968;2022-09-13T01:13:31;19.00;99.90
9975;DHT22;5028;50.974;4.968;2022-09-13T01:16:08;18.90;99.90
9975;DHT22;5028;50.974;4.968;2022-09-13T01:18:49;18.90;99.90
9975;DHT22;5028;50.974;4.968;2022-09-13T01:28:22;18.80;99.90
9975;DHT22;5028;50.974;4.968;2022-09-13T01:30:58;18.80;99.90
9975;DHT22;5028;50.974;4.968;2022-09-13T01:33:45;18.70;99.90
9975;DHT22;5028;50.974;4.968;2022-09-13T01:36:31;18.70;99.90
9975;DHT22;5028;50.974;4.968;2022-09-13T01:39:14;18.70;99.90
9975;DHT22;5028;50.974;4.968;2022-09-13T01:41:57;18.70;99.90
9975;DHT22;5028;50.974;4.968;2022-09-13T01:44:43;18.70;99.90
9975;DHT22;5028;50.974;4.968;2022-09-13T01:47:24;18.70;99.90
9975;DHT22;5028;50.974;4.968;2022-09-13T01:50:12;18.70;99.90
9975;DHT22;5028;50.974;4.968;2022-09-13T01:52:49;18.60;99.90
9975;DHT22;5028;50.974;4.968;2022-09-13T01:55:30;18.60;99.90
9975;DHT22;5028;50.974;4.968;2022-09-13T01:58:07;18.60;99.90
9975;DHT22;5028;50.974;4.968;2022-09-13T02:00:47;18.60;99.90
9975;DHT22;5028;50.974;4.968;2022-09-13T02:03:24;18.60;99.90
9975;DHT22;5028;50.974;4.968;2022-09-13T02:06:05;18.60;99.90
9975;DHT22;5028;50.974;4.968;2022-09-13T02:08:39;18.70;99.90
9975;DHT22;5028;50.974;4.968;2022-09-13T02:11:16;18.70;99.90
9975;DHT22;5028;50.974;4.968;2022-09-13T02:13:49;18.70;99.90
9975;DHT22;5028;50.974;4.968;2022-09-13T02:16:30;18.70;99.90
9975;DHT22;5028;50.974;4.968;2022-09-13T02:19:18;18.60;99.90
9975;DHT22;5028;50.974;4.968;2022-09-13T02:21:58;18.60;99.90
9975;DHT22;5028;50.974;4.968;2022-09-13T02:24:29;18.60;99.90
9975;DHT22;5028;50.974;4.968;2022-09-13T02:27:09;18.60;99.90
9975;DHT22;5028;50.974;4.968;2022-09-13T02:29:41;18.60;99.90
9975;DHT22;5028;50.974;4.968;2022-09-13T02:32:21;18.60;99.90
9975;DHT22;5028;50.974;4.968;2022-09-13T02:34:54;18.60;99.90
9975;DHT22;5028;50.974;4.968;2022-09-13T02:37:33;18.60;99.90
9975;DHT22;5028;50.974;4.968;2022-09-13T02:40:06;18.60;99.90
9975;DHT22;5028;50.974;4.968;2022-09-13T02:42:50;18.70;99.90
9975;DHT22;5028;50.974;4.968;2022-09-13T02:45:21;18.60;99.90
9975;DHT22;5028;50.974;4.968;2022-09-13T02:48:03;18.60;99.90
9975;DHT22;5028;50.974;4.968;2022-09-13T02:50:46;18.60;99.90
9975;DHT22;5028;50.974;4.968;2022-09-13T02:53:26;18.60;99.90
9975;DHT22;5028;50.974;4.968;2022-09-13T02:56:09;18.50;99.90
9975;DHT22;5028;50.974;4.968;2022-09-13T02:58:51;18.50;99.90
9975;DHT22;5028;50.974;4.968;2022-09-13T03:01:24;18.50;99.90
9975;DHT22;5028;50.974;4.968;2022-09-13T03:03:59;18.40;99.90
9975;DHT22;5028;50.974;4.968;2022-09-13T03:06:30;18.50;99.90
9975;DHT22;5028;50.974;4.968;2022-09-13T03:09:05;18.50;99.90
9975;DHT22;5028;50.974;4.968;2022-09-13T03:11:45;18.40;99.90
9975;DHT22;5028;50.974;4.968;2022-09-13T03:14:35;18.30;99.90
9975;DHT22;5028;50.974;4.968;2022-09-13T03:17:16;18.30;99.90
9975;DHT22;5028;50.974;4.968;2022-09-13T03:20:05;18.30;99.90
9975;DHT22;5028;50.974;4.968;2022-09-13T03:22:57;18.30;99.90
9975;DHT22;5028;50.974;4.968;2022-09-13T03:25:47;18.20;99.90
9975;DHT22;5028;50.974;4.968;2022-09-13T03:28:25;18.20;99.90
9975;DHT22;5028;50.974;4.968;2022-09-13T03:31:06;18.20;99.90
9975;DHT22;5028;50.974;4.968;2022-09-13T03:33:43;18.20;99.90
9975;DHT22;5028;50.974;4.968;2022-09-13T03:36:24;18.20;99.90
9975;DHT22;5028;50.974;4.968;2022-09-13T03:39:05;18.10;99.90
9975;DHT22;5028;50.974;4.968;2022-09-13T03:41:45;18.20;99.90
9975;DHT22;5028;50.974;4.968;2022-09-13T03:44:19;18.20;99.90
9975;DHT22;5028;50.974;4.968;2022-09-13T03:47:00;18.20;99.90
9975;DHT22;5028;50.974;4.968;2022-09-13T03:49:33;18.20;99.90
9975;DHT22;5028;50.974;4.968;2022-09-13T03:52:12;18.20;99.90
9975;DHT22;5028;50.974;4.968;2022-09-13T03:54:42;18.30;99.90
9975;DHT22;5028;50.974;4.968;2022-09-13T03:57:18;18.30;99.90
9975;DHT22;5028;50.974;4.968;2022-09-13T03:59:50;18.30;99.90
9975;DHT22;5028;50.974;4.968;2022-09-13T04:02:25;18.30;99.90
9975;DHT22;5028;50.974;4.968;2022-09-13T04:04:55;18.40;99.90
9975;DHT22;5028;50.974;4.968;2022-09-13T04:07:30;18.40;99.90
9975;DHT22;5028;50.974;4.968;2022-09-13T04:10:00;18.50;99.90
9975;DHT22;5028;50.974;4.968;2022-09-13T04:12:39;18.40;99.90
9975;DHT22;5028;50.974;4.968;2022-09-13T04:15:08;18.40;99.90
9975;DHT22;5028;50.974;4.968;2022-09-13T04:17:44;18.50;99.90
9975;DHT22;5028;50.974;4.968;2022-09-13T04:20:19;18.40;99.90
9975;DHT22;5028;50.974;4.968;2022-09-13T04:22:56;18.40;99.90
9975;DHT22;5028;50.974;4.968;2022-09-13T04:25:26;18.50;99.90
9975;DHT22;5028;50.974;4.968;2022-09-13T04:28:01;18.50;99.90
9975;DHT22;5028;50.974;4.968;2022-09-13T04:30:30;18.50;99.90
9975;DHT22;5028;50.974;4.968;2022-09-13T04:33:08;18.50;99.90
9975;DHT22;5028;50.974;4.968;2022-09-13T04:35:37;18.50;99.90
9975;DHT22;5028;50.974;4.968;2022-09-13T04:38:13;18.50;99.90
9975;DHT22;5028;50.974;4.968;2022-09-13T04:40:43;18.60;99.90
9975;DHT22;5028;50.974;4.968;2022-09-13T04:43:19;18.60;99.90
9975;DHT22;5028;50.974;4.968;2022-09-13T04:45:47;18.60;99.90
9975;DHT22;5028;50.974;4.968;2022-09-13T04:48:23;18.60;99.90
9975;DHT22;5028;50.974;4.968;2022-09-13T04:50:51;18.60;99.90
9975;DHT22;5028;50.974;4.968;2022-09-13T04:53:27;18.60;99.90
9975;DHT22;5028;50.974;4.968;2022-09-13T04:56:04;18.50;99.90
9975;DHT22;5028;50.974;4.968;2022-09-13T04:58:33;18.60;99.90
9975;DHT22;5028;50.974;4.968;2022-09-13T05:01:02;18.50;99.90
9975;DHT22;5028;50.974;4.968;2022-09-13T05:03:38;18.50;99.90
9975;DHT22;5028;50.974;4.968;2022-09-13T05:06:07;18.50;99.90
9975;DHT22;5028;50.974;4.968;2022-09-13T05:08:43;18.50;99.90
9975;DHT22;5028;50.974;4.968;2022-09-13T05:11:21;18.50;99.90
9975;DHT22;5028;50.974;4.968;2022-09-13T05:13:50;18.50;99.90
9975;DHT22;5028;50.974;4.968;2022-09-13T05:16:33;18.50;99.90
9975;DHT22;5028;50.974;4.968;2022-09-13T05:19:15;18.50;99.90
9975;DHT22;5028;50.974;4.968;2022-09-13T05:21:50;18.60;99.90
9975;DHT22;5028;50.974;4.968;2022-09-13T05:24:18;18.50;99.90
9975;DHT22;5028;50.974;4.968;2022-09-13T05:26:54;18.60;99.90
9975;DHT22;5028;50.974;4.968;2022-09-13T05:29:22;18.50;99.90
9975;DHT22;5028;50.974;4.968;2022-09-13T05:31:58;18.50;99.90
9975;DHT22;5028;50.974;4.968;2022-09-13T05:34:26;18.50;99.90
9975;DHT22;5028;50.974;4.968;2022-09-13T05:37:02;18.50;99.90
9975;DHT22;5028;50.974;4.968;2022-09-13T05:39:30;18.50;99.90
9975;DHT22;5028;50.974;4.968;2022-09-13T05:42:26;18.50;99.90
9975;DHT22;5028;50.974;4.968;2022-09-13T05:44:54;18.50;99.90
9975;DHT22;5028;50.974;4.968;2022-09-13T05:47:30;18.60;99.90
9975;DHT22;5028;50.974;4.968;2022-09-13T05:49:58;18.60;99.90
9975;DHT22;5028;50.974;4.968;2022-09-13T05:52:39;18.60;99.90
9975;DHT22;5028;50.974;4.968;2022-09-13T05:55:10;18.60;99.90
9975;DHT22;5028;50.974;4.968;2022-09-13T05:57:46;18.60;99.90
9975;DHT22;5028;50.974;4.968;2022-09-13T06:00:16;18.60;99.90
9975;DHT22;5028;50.974;4.968;2022-09-13T06:02:51;18.60;99.90
9975;DHT22;5028;50.974;4.968;2022-09-13T06:05:19;18.60;99.90
9975;DHT22;5028;50.974;4.968;2022-09-13T06:07:57;18.60;99.90
9975;DHT22;5028;50.974;4.968;2022-09-13T06:10:26;18.60;99.90
9975;DHT22;5028;50.974;4.968;2022-09-13T06:13:03;18.70;99.90
9975;DHT22;5028;50.974;4.968;2022-09-13T06:15:31;18.70;99.90
9975;DHT22;5028;50.974;4.968;2022-09-13T06:18:16;18.70;99.90
9975;DHT22;5028;50.974;4.968;2022-09-13T06:20:45;18.70;99.90
9975;DHT22;5028;50.974;4.968;2022-09-13T06:23:21;18.70;99.90
9975;DHT22;5028;50.974;4.968;2022-09-13T06:25:50;18.70;99.90
9975;DHT22;5028;50.974;4.968;2022-09-13T06:28:34;18.70;99.90
9975;DHT22;5028;50.974;4.968;2022-09-13T06:31:04;18.80;99.90
9975;DHT22;5028;50.974;4.968;2022-09-13T06:33:41;18.80;99.90
9975;DHT22;5028;50.974;4.968;2022-09-13T06:36:12;18.80;99.90
9975;DHT22;5028;50.974;4.968;2022-09-13T06:38:48;18.80;99.90
9975;DHT22;5028;50.974;4.968;2022-09-13T06:41:18;18.90;99.90
9975;DHT22;5028;50.974;4.968;2022-09-13T06:43:58;19.00;99.90
9975;DHT22;5028;50.974;4.968;2022-09-13T06:46:28;19.00;99.90
9975;DHT22;5028;50.974;4.968;2022-09-13T06:49:05;19.10;99.90
9975;DHT22;5028;50.974;4.968;2022-09-13T06:51:34;19.10;99.90
9975;DHT22;5028;50.974;4.968;2022-09-13T06:54:09;19.10;99.90
9975;DHT22;5028;50.974;4.968;2022-09-13T06:56:39;19.20;99.90
9975;DHT22;5028;50.974;4.968;2022-09-13T06:59:16;19.30;99.90
9975;DHT22;5028;50.974;4.968;2022-09-13T07:01:45;19.30;99.90
9975;DHT22;5028;50.974;4.968;2022-09-13T07:04:20;19.40;99.90
9975;DHT22;5028;50.974;4.968;2022-09-13T07:06:49;19.50;99.90
9975;DHT22;5028;50.974;4.968;2022-09-13T07:09:24;19.60;99.90
9975;DHT22;5028;50.974;4.968;2022-09-13T07:11:54;19.70;99.90
9975;DHT22;5028;50.974;4.968;2022-09-13T07:14:30;19.70;99.90
9975;DHT22;5028;50.974;4.968;2022-09-13T07:16:59;19.80;99.90
9975;DHT22;5028;50.974;4.968;2022-09-13T07:19:37;19.90;99.90
9975;DHT22;5028;50.974;4.968;2022-09-13T07:22:05;20.00;99.90
9975;DHT22;5028;50.974;4.968;2022-09-13T07:24:40;20.00;99.90
9975;DHT22;5028;50.974;4.968;2022-09-13T07:27:08;20.00;99.90
9975;DHT22;5028;50.974;4.968;2022-09-13T07:29:44;20.10;99.90
9975;DHT22;5028;50.974;4.968;2022-09-13T07:32:13;20.10;99.90
9975;DHT22;5028;50.974;4.968;2022-09-13T07:34:48;20.20;99.90
9975;DHT22;5028;50.974;4.968;2022-09-13T07:37:17;20.30;99.90
9975;DHT22;5028;50.974;4.968;2022-09-13T07:39:52;20.20;99.90
9975;DHT22;5028;50.974;4.968;2022-09-13T07:42:20;20.10;99.90
9975;DHT22;5028;50.974;4.968;2022-09-13T07:44:57;20.20;99.90
9975;DHT22;5028;50.974;4.968;2022-09-13T07:47:26;20.20;99.90
9975;DHT22;5028;50.974;4.968;2022-09-13T07:50:01;20.30;99.90
9975;DHT22;5028;50.974;4.968;2022-09-13T07:52:29;20.40;99.90
9975;DHT22;5028;50.974;4.968;2022-09-13T07:55:08;20.50;99.90
9975;DHT22;5028;50.974;4.968;2022-09-13T07:57:36;20.60;99.90
9975;DHT22;5028;50.974;4.968;2022-09-13T08:00:14;20.80;99.90
9975;DHT22;5028;50.974;4.968;2022-09-13T08:02:42;20.80;99.90
9975;DHT22;5028;50.974;4.968;2022-09-13T08:05:18;20.80;99.90
9975;DHT22;5028;50.974;4.968;2022-09-13T08:07:46;20.80;99.90
9975;DHT22;5028;50.974;4.968;2022-09-13T08:10:22;21.00;99.90
9975;DHT22;5028;50.974;4.968;2022-09-13T08:12:50;21.20;99.90
9975;DHT22;5028;50.974;4.968;2022-09-13T08:15:27;21.30;99.90
9975;DHT22;5028;50.974;4.968;2022-09-13T08:17:55;21.40;99.90
9975;DHT22;5028;50.974;4.968;2022-09-13T08:20:38;21.30;99.90
9975;DHT22;5028;50.974;4.968;2022-09-13T08:23:09;21.40;99.90
9975;DHT22;5028;50.974;4.968;2022-09-13T08:25:59;21.50;99.90
9975;DHT22;5028;50.974;4.968;2022-09-13T08:28:29;21.60;99.90
9975;DHT22;5028;50.974;4.968;2022-09-13T08:31:10;21.70;99.90
9975;DHT22;5028;50.974;4.968;2022-09-13T08:33:42;21.90;99.90
9975;DHT22;5028;50.974;4.968;2022-09-13T08:36:19;21.90;99.90
9975;DHT22;5028;50.974;4.968;2022-09-13T08:38:51;21.90;99.90
9975;DHT22;5028;50.974;4.968;2022-09-13T08:41:50;21.90;99.90
9975;DHT22;5028;50.974;4.968;2022-09-13T08:44:26;22.00;99.90
9975;DHT22;5028;50.974;4.968;2022-09-13T08:47:17;22.00;99.90
9975;DHT22;5028;50.974;4.968;2022-09-13T08:49:52;21.90;99.90
9975;DHT22;5028;50.974;4.968;2022-09-13T08:52:29;21.90;99.90
9975;DHT22;5028;50.974;4.968;2022-09-13T08:55:02;22.00;99.90
9975;DHT22;5028;50.974;4.968;2022-09-13T08:57:45;22.00;99.90
9975;DHT22;5028;50.974;4.968;2022-09-13T09:00:20;22.20;99.90
9975;DHT22;5028;50.974;4.968;2022-09-13T09:05:47;22.30;99.90
9975;DHT22;5028;50.974;4.968;2022-09-13T09:08:31;22.50;99.90
9975;DHT22;5028;50.974;4.968;2022-09-13T09:11:03;22.80;99.90
9975;DHT22;5028;50.974;4.968;2022-09-13T09:13:49;22.80;99.90
9975;DHT22;5028;50.974;4.968;2022-09-13T09:16:27;22.90;99.90
9975;DHT22;5028;50.974;4.968;2022-09-13T09:19:19;23.20;99.90
9975;DHT22;5028;50.974;4.968;2022-09-13T09:21:50;23.40;99.90
9975;DHT22;5028;50.974;4.968;2022-09-13T09:24:25;23.70;99.90
9975;DHT22;5028;50.974;4.968;2022-09-13T09:26:56;23.90;99.90
9975;DHT22;5028;50.974;4.968;2022-09-13T09:29:32;24.10;99.90
9975;DHT22;5028;50.974;4.968;2022-09-13T09:32:13;24.30;99.90
9975;DHT22;5028;50.974;4.968;2022-09-13T09:35:02;24.30;99.90
9975;DHT22;5028;50.974;4.968;2022-09-13T09:37:42;24.40;99.90
9975;DHT22;5028;50.974;4.968;2022-09-13T09:40:13;24.50;99.90
9975;DHT22;5028;50.974;4.968;2022-09-13T09:42:54;24.50;99.90
9975;DHT22;5028;50.974;4.968;2022-09-13T09:45:32;24.50;99.90
9975;DHT22;5028;50.974;4.968;2022-09-13T09:48:07;24.70;99.90
9975;DHT22;5028;50.974;4.968;2022-09-13T09:50:56;24.90;99.90
9975;DHT22;5028;50.974;4.968;2022-09-13T09:53:47;25.30;99.90
9975;DHT22;5028;50.974;4.968;2022-09-13T09:56:25;25.60;99.90
9975;DHT22;5028;50.974;4.968;2022-09-13T09:59:02;25.70;99.90
9975;DHT22;5028;50.974;4.968;2022-09-13T10:01:33;25.70;99.90
9975;DHT22;5028;50.974;4.968;2022-09-13T10:04:06;25.70;99.90
9975;DHT22;5028;50.974;4.968;2022-09-13T10:06:44;25.40;99.90
9975;DHT22;5028;50.974;4.968;2022-09-13T10:09:21;25.50;99.90
9975;DHT22;5028;50.974;4.968;2022-09-13T10:11:51;25.60;99.90
9975;DHT22;5028;50.974;4.968;2022-09-13T10:14:37;25.70;99.90
9975;DHT22;5028;50.974;4.968;2022-09-13T10:17:17;25.80;99.90
9975;DHT22;5028;50.974;4.968;2022-09-13T10:20:02;25.80;99.90
9975;DHT22;5028;50.974;4.968;2022-09-13T10:22:39;25.40;99.90
9975;DHT22;5028;50.974;4.968;2022-09-13T10:25:20;25.40;99.90
9975;DHT22;5028;50.974;4.968;2022-09-13T10:27:56;25.30;99.90
9975;DHT22;5028;50.974;4.968;2022-09-13T10:30:31;25.20;99.90
9975;DHT22;5028;50.974;4.968;2022-09-13T10:33:18;25.10;99.90
9975;DHT22;5028;50.974;4.968;2022-09-13T10:35:52;25.10;99.90
9975;DHT22;5028;50.974;4.968;2022-09-13T10:38:33;25.20;99.90
9975;DHT22;5028;50.974;4.968;2022-09-13T10:41:03;25.30;99.90
9975;DHT22;5028;50.974;4.968;2022-09-13T10:43:39;25.30;99.90
9975;DHT22;5028;50.974;4.968;2022-09-13T10:46:12;25.10;99.90
9975;DHT22;5028;50.974;4.968;2022-09-13T10:48:50;25.00;99.90
9975;DHT22;5028;50.974;4.968;2022-09-13T10:51:32;24.90;99.90
9975;DHT22;5028;50.974;4.968;2022-09-13T10:54:18;24.80;99.90
9975;DHT22;5028;50.974;4.968;2022-09-13T10:56:47;24.70;99.90
9975;DHT22;5028;50.974;4.968;2022-09-13T10:59:25;24.70;99.90
9975;DHT22;5028;50.974;4.968;2022-09-13T11:02:18;24.70;99.90
9975;DHT22;5028;50.974;4.968;2022-09-13T11:05:13;24.70;99.90
9975;DHT22;5028;50.974;4.968;2022-09-13T11:08:05;24.90;99.90
9975;DHT22;5028;50.974;4.968;2022-09-13T11:10:49;25.00;99.90
9975;DHT22;5028;50.974;4.968;2022-09-13T11:13:29;25.10;99.90
9975;DHT22;5028;50.974;4.968;2022-09-13T11:16:24;25.00;99.90
9975;DHT22;5028;50.974;4.968;2022-09-13T11:22:21;25.50;99.90
9975;DHT22;5028;50.974;4.968;2022-09-13T11:25:13;25.80;99.90
9975;DHT22;5028;50.974;4.968;2022-09-13T11:27:56;25.90;99.90
9975;DHT22;5028;50.974;4.968;2022-09-13T11:30:29;26.10;99.90
9975;DHT22;5028;50.974;4.968;2022-09-13T11:33:19;26.40;99.90
9975;DHT22;5028;50.974;4.968;2022-09-13T11:36:00;26.60;99.90
9975;DHT22;5028;50.974;4.968;2022-09-13T11:38:50;26.90;99.90
9975;DHT22;5028;50.974;4.968;2022-09-13T11:41:31;27.00;99.90
9975;DHT22;5028;50.974;4.968;2022-09-13T11:44:27;27.10;99.90
9975;DHT22;5028;50.974;4.968;2022-09-13T11:47:05;27.30;99.90
9975;DHT22;5028;50.974;4.968;2022-09-13T11:49:59;27.50;99.90
9975;DHT22;5028;50.974;4.968;2022-09-13T11:52:40;27.70;99.90
9975;DHT22;5028;50.974;4.968;2022-09-13T11:55:29;28.00;99.90
9975;DHT22;5028;50.974;4.968;2022-09-13T11:58:07;27.90;99.90
9975;DHT22;5028;50.974;4.968;2022-09-13T12:00:52;27.80;99.90
9975;DHT22;5028;50.974;4.968;2022-09-13T12:03:27;27.80;99.90
9975;DHT22;5028;50.974;4.968;2022-09-13T12:06:11;27.80;99.90
9975;DHT22;5028;50.974;4.968;2022-09-13T12:08:44;27.30;99.90
9975;DHT22;5028;50.974;4.968;2022-09-13T12:11:22;26.90;99.90
9975;DHT22;5028;50.974;4.968;2022-09-13T12:13:54;27.10;99.90
9975;DHT22;5028;50.974;4.968;2022-09-13T12:16:34;27.10;99.90
9975;DHT22;5028;50.974;4.968;2022-09-13T12:19:14;27.00;99.90
9975;DHT22;5028;50.974;4.968;2022-09-13T12:21:54;26.80;99.90
9975;DHT22;5028;50.974;4.968;2022-09-13T12:24:29;26.50;99.90
9975;DHT22;5028;50.974;4.968;2022-09-13T12:27:12;26.40;99.90
9975;DHT22;5028;50.974;4.968;2022-09-13T12:29:49;26.20;99.90
9975;DHT22;5028;50.974;4.968;2022-09-13T12:32:26;26.20;99.90
9975;DHT22;5028;50.974;4.968;2022-09-13T12:34:58;26.20;99.90
9975;DHT22;5028;50.974;4.968;2022-09-13T12:41:15;26.40;99.90
9975;DHT22;5028;50.974;4.968;2022-09-13T12:50:39;26.70;99.90
9975;DHT22;5028;50.974;4.968;2022-09-13T12:53:31;26.40;99.90
9975;DHT22;5028;50.974;4.968;2022-09-13T12:56:13;26.20;99.90
9975;DHT22;5028;50.974;4.968;2022-09-13T13:02:02;26.20;99.90
9975;DHT22;5028;50.974;4.968;2022-09-13T13:04:38;26.40;99.90
9975;DHT22;5028;50.974;4.968;2022-09-13T13:07:19;26.50;99.90
9975;DHT22;5028;50.974;4.968;2022-09-13T13:09:56;26.70;99.90
9975;DHT22;5028;50.974;4.968;2022-09-13T13:12:29;26.90;99.90
9975;DHT22;5028;50.974;4.968;2022-09-13T13:15:06;27.20;99.90
9975;DHT22;5028;50.974;4.968;2022-09-13T13:17:45;27.40;99.90
9975;DHT22;5028;50.974;4.968;2022-09-13T13:20:44;27.50;99.90
9975;DHT22;5028;50.974;4.968;2022-09-13T13:23:21;27.60;99.90
9975;DHT22;5028;50.974;4.968;2022-09-13T13:26:08;27.70;99.90
9975;DHT22;5028;50.974;4.968;2022-09-13T13:32:08;27.50;99.90
9975;DHT22;5028;50.974;4.968;2022-09-13T13:34:41;27.20;99.90
9975;DHT22;5028;50.974;4.968;2022-09-13T13:37:36;27.20;99.90
9975;DHT22;5028;50.974;4.968;2022-09-13T13:40:27;27.30;99.90
9975;DHT22;5028;50.974;4.968;2022-09-13T13:43:27;27.30;99.90
9975;DHT22;5028;50.974;4.968;2022-09-13T13:46:21;27.10;99.90
9975;DHT22;5028;50.974;4.968;2022-09-13T13:48:55;27.00;99.90
9975;DHT22;5028;50.974;4.968;2022-09-13T13:51:25;26.60;99.90
9975;DHT22;5028;50.974;4.968;2022-09-13T13:54:03;26.40;99.90
9975;DHT22;5028;50.974;4.968;2022-09-13T13:56:47;26.40;99.90
9975;DHT22;5028;50.974;4.968;2022-09-13T13:59:26;26.50;99.90
9975;DHT22;5028;50.974;4.968;2022-09-13T14:01:56;26.40;99.90
9975;DHT22;5028;50.974;4.968;2022-09-13T14:04:58;26.50;99.90
9975;DHT22;5028;50.974;4.968;2022-09-13T14:10:43;26.40;99.90
9975;DHT22;5028;50.974;4.968;2022-09-13T14:13:32;26.40;99.90
9975;DHT22;5028;50.974;4.968;2022-09-13T14:16:26;26.20;99.90
9975;DHT22;5028;50.974;4.968;2022-09-13T14:19:14;26.00;99.90
9975;DHT22;5028;50.974;4.968;2022-09-13T14:22:12;25.70;99.90
9975;DHT22;5028;50.974;4.968;2022-09-13T14:24:42;25.40;99.90
9975;DHT22;5028;50.974;4.968;2022-09-13T14:27:20;25.20;99.90
9975;DHT22;5028;50.974;4.968;2022-09-13T14:29:50;25.20;99.90
9975;DHT22;5028;50.974;4.968;2022-09-13T14:32:29;25.00;99.90
9975;DHT22;5028;50.974;4.968;2022-09-13T14:35:23;24.90;99.90
9975;DHT22;5028;50.974;4.968;2022-09-13T14:38:12;24.80;99.90
9975;DHT22;5028;50.974;4.968;2022-09-13T14:40:41;24.70;99.90
9975;DHT22;5028;50.974;4.968;2022-09-13T14:43:22;24.70;99.90
9975;DHT22;5028;50.974;4.968;2022-09-13T14:45:55;24.70;99.90
9975;DHT22;5028;50.974;4.968;2022-09-13T14:48:37;24.60;99.90
9975;DHT22;5028;50.974;4.968;2022-09-13T14:51:15;24.60;99.90
9975;DHT22;5028;50.974;4.968;2022-09-13T14:53:55;24.50;99.90
9975;DHT22;5028;50.974;4.968;2022-09-13T14:56:34;24.30;99.90
9975;DHT22;5028;50.974;4.968;2022-09-13T14:59:13;24.30;99.90
9975;DHT22;5028;50.974;4.968;2022-09-13T15:01:44;24.30;99.90
9975;DHT22;5028;50.974;4.968;2022-09-13T15:04:19;24.20;99.90
9975;DHT22;5028;50.974;4.968;2022-09-13T15:07:05;24.10;99.90
9975;DHT22;5028;50.974;4.968;2022-09-13T15:09:42;24.00;99.90
9975;DHT22;5028;50.974;4.968;2022-09-13T15:12:23;23.90;99.90
9975;DHT22;5028;50.974;4.968;2022-09-13T15:18:28;23.80;99.90
9975;DHT22;5028;50.974;4.968;2022-09-13T15:21:03;23.80;99.90
9975;DHT22;5028;50.974;4.968;2022-09-13T15:23:41;23.80;99.90
9975;DHT22;5028;50.974;4.968;2022-09-13T15:26:18;23.70;99.90
9975;DHT22;5028;50.974;4.968;2022-09-13T15:28:56;23.60;99.90
9975;DHT22;5028;50.974;4.968;2022-09-13T15:31:26;23.50;99.90
9975;DHT22;5028;50.974;4.968;2022-09-13T15:34:12;23.40;99.90
9975;DHT22;5028;50.974;4.968;2022-09-13T15:36:48;23.40;99.90
9975;DHT22;5028;50.974;4.968;2022-09-13T15:39:26;23.40;99.90
9975;DHT22;5028;50.974;4.968;2022-09-13T15:41:58;23.40;99.90
9975;DHT22;5028;50.974;4.968;2022-09-13T15:44:33;23.10;99.90
9975;DHT22;5028;50.974;4.968;2022-09-13T15:47:10;23.00;99.90
9975;DHT22;5028;50.974;4.968;2022-09-13T15:49:46;22.90;99.90
9975;DHT22;5028;50.974;4.968;2022-09-13T15:52:21;23.00;99.90
9975;DHT22;5028;50.974;4.968;2022-09-13T15:54:50;22.90;99.90
9975;DHT22;5028;50.974;4.968;2022-09-13T15:57:28;23.00;99.90
9975;DHT22;5028;50.974;4.968;2022-09-13T16:00:05;22.90;99.90
9975;DHT22;5028;50.974;4.968;2022-09-13T16:02:34;22.80;99.90
9975;DHT22;5028;50.974;4.968;2022-09-13T16:05:09;22.80;99.90
9975;DHT22;5028;50.974;4.968;2022-09-13T16:07:39;22.70;99.90
9975;DHT22;5028;50.974;4.968;2022-09-13T16:10:14;22.70;99.90
9975;DHT22;5028;50.974;4.968;2022-09-13T16:12:51;22.80;99.90
9975;DHT22;5028;50.974;4.968;2022-09-13T16:15:27;22.70;99.90
9975;DHT22;5028;50.974;4.968;2022-09-13T16:17:55;22.70;99.90
9975;DHT22;5028;50.974;4.968;2022-09-13T16:20:45;22.70;99.90
9975;DHT22;5028;50.974;4.968;2022-09-13T16:23:15;22.70;99.90
9975;DHT22;5028;50.974;4.968;2022-09-13T16:25:55;22.60;99.90
9975;DHT22;5028;50.974;4.968;2022-09-13T16:28:25;22.60;99.90
9975;DHT22;5028;50.974;4.968;2022-09-13T16:31:00;22.50;99.90
9975;DHT22;5028;50.974;4.968;2022-09-13T16:33:29;22.50;99.90
9975;DHT22;5028;50.974;4.968;2022-09-13T16:36:04;22.40;99.90
9975;DHT22;5028;50.974;4.968;2022-09-13T16:38:32;22.40;99.90
9975;DHT22;5028;50.974;4.968;2022-09-13T16:41:07;22.30;99.90
9975;DHT22;5028;50.974;4.968;2022-09-13T16:43:38;22.30;99.90
9975;DHT22;5028;50.974;4.968;2022-09-13T16:46:14;22.30;99.90
9975;DHT22;5028;50.974;4.968;2022-09-13T16:48:42;22.30;99.90
9975;DHT22;5028;50.974;4.968;2022-09-13T16:51:17;22.20;99.90
9975;DHT22;5028;50.974;4.968;2022-09-13T16:53:48;22.20;99.90
9975;DHT22;5028;50.974;4.968;2022-09-13T16:56:24;22.10;99.90
9975;DHT22;5028;50.974;4.968;2022-09-13T16:58:54;22.10;99.90
9975;DHT22;5028;50.974;4.968;2022-09-13T17:01:29;22.10;99.90
9975;DHT22;5028;50.974;4.968;2022-09-13T17:03:58;22.00;99.90
9975;DHT22;5028;50.974;4.968;2022-09-13T17:06:33;22.00;99.90
9975;DHT22;5028;50.974;4.968;2022-09-13T17:09:04;21.80;99.90
9975;DHT22;5028;50.974;4.968;2022-09-13T17:11:42;21.70;99.90
9975;DHT22;5028;50.974;4.968;2022-09-13T17:14:13;21.70;99.90
9975;DHT22;5028;50.974;4.968;2022-09-13T17:16:51;21.60;99.90
9975;DHT22;5028;50.974;4.968;2022-09-13T17:19:22;21.60;99.90
9975;DHT22;5028;50.974;4.968;2022-09-13T17:22:05;21.50;99.90
9975;DHT22;5028;50.974;4.968;2022-09-13T17:24:37;21.40;99.90
9975;DHT22;5028;50.974;4.968;2022-09-13T17:27:12;21.40;99.90
9975;DHT22;5028;50.974;4.968;2022-09-13T17:29:43;21.30;99.90
9975;DHT22;5028;50.974;4.968;2022-09-13T17:32:19;21.30;99.90
9975;DHT22;5028;50.974;4.968;2022-09-13T17:34:48;21.20;99.90
9975;DHT22;5028;50.974;4.968;2022-09-13T17:37:22;21.10;99.90
9975;DHT22;5028;50.974;4.968;2022-09-13T17:39:50;21.00;99.90
9975;DHT22;5028;50.974;4.968;2022-09-13T17:42:25;20.80;99.90